Time;durP1;ratioP1;P1;durP2;ratioP2;P2;SDS_P1;SDS_P2;PMS_P1;PMS_P2;Temp;Humidity;BMP_temperature;BMP_pressure;BME280_temperature;BME280_humidity;BME280_pressure;Samples;Min_cycle;Max_cycle;Signal;HPM_P1;HPM_P2
2021/10/02 00:31:24;;;;;;;6.78;5.15;;;;;;;14.06;100.00;96411.94;4960709;28;20086;-58
2021/10/02 00:36:55;;;;;;;6.57;5.30;;;;;;;14.28;100.00;96405.13;4965530;28;20074;-56
2021/10/02 00:44:57;;;;;;;6.20;5.60;;;;;;;14.42;100.00;96403.63;4965669;28;20077;-56
2021/10/02 00:47:27;;;;;;;5.50;4.97;;;;;;;14.42;100.00;96400.97;4969871;28;20066;-59
2021/10/02 00:49:56;;;;;;;5.53;5.00;;;;;;;14.17;100.00;96403.63;4970145;28;20086;-54
2021/10/02 00:52:25;;;;;;;6.05;5.22;;;;;;;13.74;100.00;96402.19;4970254;28;20081;-58
2021/10/02 00:54:53;;;;;;;7.65;5.07;;;;;;;14.16;100.00;96404.66;4967149;28;20526;-59
2021/10/02 00:57:23;;;;;;;5.57;4.95;;;;;;;13.97;100.00;96400.53;4969589;28;20573;-59
2021/10/02 00:59:52;;;;;;;7.03;4.97;;;;;;;14.02;100.00;96400.03;4966429;28;20468;-60
2021/10/02 01:02:25;;;;;;;7.40;4.72;;;;;;;14.14;100.00;96401.34;4969855;28;20070;-59
2021/10/02 01:05:04;;;;;;;4.82;4.25;;;;;;;14.04;100.00;96403.34;4969913;28;20078;-58
2021/10/02 01:07:38;;;;;;;5.35;4.65;;;;;;;13.96;100.00;96398.03;4971677;28;20529;-55
2021/10/02 01:10:18;;;;;;;5.78;5.10;;;;;;;13.83;100.00;96395.88;4961343;28;20261;-57
2021/10/02 01:12:55;;;;;;;6.30;5.10;;;;;;;13.37;100.00;96403.50;4968898;28;20078;-49
2021/10/02 01:15:32;;;;;;;5.47;4.88;;;;;;;13.36;100.00;96406.31;4972289;28;20054;-55
2021/10/02 01:18:06;;;;;;;8.27;4.95;;;;;;;13.89;100.00;96397.06;4968813;28;20089;-48
2021/10/02 01:20:44;;;;;;;6.30;5.03;;;;;;;13.96;100.00;96392.72;4968807;28;20074;-50
2021/10/02 01:23:25;;;;;;;6.97;5.10;;;;;;;14.13;100.00;96396.19;4967111;28;20070;-53
2021/10/02 01:26:06;;;;;;;8.13;4.90;;;;;;;13.75;100.00;96395.91;4968002;28;20086;-54
2021/10/02 01:28:38;;;;;;;5.72;4.60;;;;;;;14.10;100.00;96397.34;4971228;28;20082;-55
2021/10/02 01:31:17;;;;;;;5.72;4.85;;;;;;;14.20;100.00;96390.03;4964692;28;21456;-54
2021/10/02 01:33:54;;;;;;;6.07;4.93;;;;;;;14.28;100.00;96389.22;4969008;28;20462;-54
2021/10/02 01:36:32;;;;;;;5.50;4.95;;;;;;;14.06;100.00;96384.59;4962227;28;20070;-54
2021/10/02 01:47:25;;;;;;;5.60;4.95;;;;;;;13.98;100.00;96388.09;4969259;28;20521;-57
2021/10/02 01:49:55;;;;;;;5.60;4.80;;;;;;;14.18;100.00;96383.28;4969262;28;20093;-59
2021/10/02 01:52:25;;;;;;;;;;;;;;;14.00;100.00;96381.66;4970583;28;20086;-56
2021/10/02 01:54:55;;;;;;;6.00;4.65;;;;;;;13.76;100.00;96381.63;4968385;28;19961;-55
2021/10/02 01:57:27;;;;;;;6.22;4.95;;;;;;;14.00;100.00;96381.66;4968349;28;20075;-56
2021/10/02 01:59:58;;;;;;;5.90;4.63;;;;;;;14.04;100.00;96387.44;4967893;28;20074;-57
2021/10/02 02:02:27;;;;;;;7.88;4.53;;;;;;;13.86;100.00;96382.28;4967420;28;20062;-53
2021/10/02 02:04:56;;;;;;;5.72;5.13;;;;;;;14.20;100.00;96375.97;4967446;28;20101;-56
2021/10/02 02:07:26;;;;;;;7.40;4.68;;;;;;;14.11;100.00;96384.91;4967565;28;20086;-52
2021/10/02 02:09:57;;;;;;;5.80;4.68;;;;;;;13.89;100.00;96389.91;4968336;28;20078;-59
2021/10/02 02:12:31;;;;;;;7.28;4.88;;;;;;;14.06;100.00;96382.78;4966980;28;20073;-60
2021/10/02 02:15:03;;;;;;;6.45;5.10;;;;;;;14.39;100.00;96378.25;4971552;28;20086;-52
2021/10/02 02:17:32;;;;;;;7.22;4.93;;;;;;;14.24;100.00;96378.09;4968236;28;20078;-55
2021/10/02 02:20:03;;;;;;;6.72;5.70;;;;;;;14.23;100.00;96373.78;4968715;28;20096;-56
2021/10/02 02:22:31;;;;;;;6.40;5.35;;;;;;;14.43;100.00;96368.13;4967469;28;20090;-53
2021/10/02 02:25:00;;;;;;;6.47;5.43;;;;;;;14.20;100.00;96375.97;4968597;28;20117;-54
2021/10/02 02:27:29;;;;;;;6.13;4.80;;;;;;;14.05;100.00;96372.34;4968057;28;20768;-54
2021/10/02 02:29:58;;;;;;;5.53;4.95;;;;;;;14.14;100.00;96371.31;4966355;28;20051;-56
2021/10/02 02:32:27;;;;;;;5.20;4.70;;;;;;;14.05;100.00;96373.19;4966657;28;20113;-54
2021/10/02 02:34:56;;;;;;;5.97;4.68;;;;;;;14.24;100.00;96369.31;4967760;28;20090;-58
2021/10/02 02:37:24;;;;;;;6.63;4.88;;;;;;;14.30;100.00;96376.59;4970283;28;20074;-51
2021/10/02 02:39:53;;;;;;;4.78;4.28;;;;;;;14.47;100.00;96372.91;4966797;28;20517;-55
2021/10/02 02:42:21;;;;;;;9.52;4.90;;;;;;;13.98;100.00;96378.31;4969097;28;20067;-60
2021/10/02 02:44:50;;;;;;;9.98;4.90;;;;;;;13.97;100.00;96375.81;4967974;28;20071;-52
2021/10/02 02:47:22;;;;;;;7.13;4.82;;;;;;;13.97;100.00;96381.97;4965335;28;20074;-55
2021/10/02 02:49:58;;;;;;;5.22;4.55;;;;;;;13.91;100.00;96385.28;4966283;28;20086;-58
2021/10/02 02:52:32;;;;;;;5.78;4.22;;;;;;;13.97;100.00;96375.81;4968241;28;20078;-54
2021/10/02 02:55:04;;;;;;;5.90;4.72;;;;;;;14.19;100.00;96367.19;4968290;28;20080;-59
2021/10/02 02:57:37;;;;;;;5.00;4.35;;;;;;;13.65;100.00;96368.72;4962697;28;20074;-52
2021/10/02 03:00:07;;;;;;;5.55;4.50;;;;;;;13.70;100.00;96371.72;4966863;28;20062;-49
2021/10/02 03:02:38;;;;;;;7.97;5.00;;;;;;;14.11;100.00;96371.66;4968948;28;20070;-51
2021/10/02 03:05:09;;;;;;;5.40;4.72;;;;;;;14.18;100.00;96370.00;4967069;28;20170;-49
2021/10/02 03:07:42;;;;;;;6.63;4.78;;;;;;;13.63;100.00;96373.38;4966565;28;20104;-54
2021/10/02 03:10:12;;;;;;;8.02;4.40;;;;;;;13.66;100.00;96367.72;4967210;28;20458;-56
2021/10/02 03:12:41;;;;;;;5.50;4.68;;;;;;;13.89;100.00;96365.25;4966458;28;20074;-59
2021/10/02 03:15:12;;;;;;;5.70;4.63;;;;;;;13.59;100.00;96366.75;4960610;28;20506;-56
2021/10/02 03:17:41;;;;;;;7.82;4.57;;;;;;;13.49;100.00;96369.56;4966258;28;20074;-57
2021/10/02 03:20:12;;;;;;;5.70;4.45;;;;;;;13.86;100.00;96366.41;4966365;28;20521;-50
2021/10/02 03:22:41;;;;;;;9.93;4.70;;;;;;;14.00;100.00;96370.19;4966009;28;20082;-55
2021/10/02 03:25:10;;;;;;;7.15;4.68;;;;;;;14.02;100.00;96374.34;4967085;28;20079;-57
2021/10/02 03:27:39;;;;;;;5.53;4.78;;;;;;;13.81;100.00;96375.88;4967542;28;20070;-61
2021/10/02 03:30:09;;;;;;;8.60;4.75;;;;;;;14.13;100.00;96364.38;4967217;28;20419;-54
2021/10/02 03:32:39;;;;;;;7.53;5.20;;;;;;;13.90;100.00;96369.53;4966711;28;20073;-48
2021/10/02 03:35:08;;;;;;;6.20;4.97;;;;;;;13.83;100.00;96357.94;4964569;28;20419;-52
2021/10/02 03:37:38;;;;;;;6.60;5.15;;;;;;;13.77;100.00;96356.81;4969282;28;20081;-53
2021/10/02 03:40:09;;;;;;;9.55;5.35;;;;;;;14.00;100.00;96355.13;4965206;28;21345;-51
2021/10/02 03:42:43;;;;;;;6.63;4.93;;;;;;;13.81;100.00;96359.97;4962097;28;20077;-60
2021/10/02 03:45:12;;;;;;;8.23;5.43;;;;;;;13.86;100.00;96358.44;4963516;28;20077;-51
2021/10/02 03:47:40;;;;;;;8.02;5.43;;;;;;;13.78;100.00;96355.81;4967716;28;20088;-52
2021/10/02 03:50:10;;;;;;;7.53;5.88;;;;;;;13.98;100.00;96356.28;4965572;28;20117;-50
2021/10/02 03:52:40;;;;;;;8.75;5.75;;;;;;;14.01;100.00;96353.31;4967342;28;20612;-53
2021/10/02 03:55:10;;;;;;;6.70;5.45;;;;;;;14.04;100.00;96350.31;4969198;28;20206;-57
2021/10/02 03:57:39;;;;;;;7.38;5.47;;;;;;;14.02;100.00;96354.94;4967051;28;20184;-57
2021/10/02 04:00:09;;;;;;;8.27;5.28;;;;;;;13.61;100.00;96354.16;4964435;28;20041;-49
2021/10/02 04:02:38;;;;;;;6.38;4.93;;;;;;;14.11;100.00;96359.25;4964204;28;20066;-47
2021/10/02 04:05:07;;;;;;;6.57;5.50;;;;;;;14.17;100.00;96350.59;4966797;28;20085;-59
2021/10/02 04:07:36;;;;;;;7.28;5.60;;;;;;;14.27;100.00;96355.72;4968504;28;20468;-53
2021/10/02 04:10:07;;;;;;;7.50;5.63;;;;;;;14.23;100.00;96351.75;4964772;28;20529;-54
2021/10/02 04:12:36;;;;;;;8.48;5.45;;;;;;;14.48;100.00;96345.34;4966101;28;20074;-49
2021/10/02 04:15:06;;;;;;;6.60;4.93;;;;;;;14.11;100.00;96345.13;4965670;28;20050;-57
2021/10/02 04:17:34;;;;;;;10.25;5.20;;;;;;;14.51;100.00;96349.53;4964476;28;20054;-52
2021/10/02 04:20:04;;;;;;;7.38;5.40;;;;;;;14.39;100.00;96343.75;4970175;28;20066;-56
2021/10/02 04:22:33;;;;;;;7.00;5.03;;;;;;;14.61;100.00;96349.34;4975460;28;20547;-52
2021/10/02 04:25:01;;;;;;;8.20;5.18;;;;;;;13.90;100.00;96351.84;4972967;28;20070;-49
2021/10/02 04:27:31;;;;;;;8.57;5.50;;;;;;;14.61;100.00;96344.03;4973785;28;20074;-57
2021/10/02 04:30:00;;;;;;;7.03;5.07;;;;;;;14.57;100.00;96350.69;4970225;28;20085;-50
2021/10/02 04:32:28;;;;;;;8.25;5.40;;;;;;;14.79;100.00;96341.13;4968579;28;20078;-57
2021/10/02 04:34:56;;;;;;;8.00;5.72;;;;;;;14.84;100.00;96342.25;4969570;28;20075;-48
2021/10/02 04:37:25;;;;;;;5.78;4.65;;;;;;;14.28;100.00;96353.88;4971890;28;20079;-50
2021/10/02 04:39:53;;;;;;;6.90;5.07;;;;;;;14.58;100.00;96344.38;4975876;28;20082;-57
2021/10/02 04:42:22;;;;;;;5.85;4.90;;;;;;;14.65;100.00;96346.16;4968112;28;20066;-53
2021/10/02 04:44:51;;;;;;;8.60;5.05;;;;;;;14.74;100.00;96346.97;4969451;28;20063;-53
2021/10/02 04:47:20;;;;;;;6.35;4.93;;;;;;;14.71;100.00;96352.59;4969601;28;20062;-55
2021/10/02 04:49:49;;;;;;;7.28;5.20;;;;;;;14.13;100.00;96370.50;4968648;28;20090;-58
2021/10/02 04:52:17;;;;;;;6.32;5.35;;;;;;;14.30;100.00;96360.69;4971425;28;20086;-54
2021/10/02 04:54:46;;;;;;;7.68;5.22;;;;;;;14.46;100.00;96357.16;4977401;28;20089;-50
2021/10/02 04:57:14;;;;;;;6.97;5.10;;;;;;;14.63;100.00;96361.44;4973627;28;20070;-55
2021/10/02 04:59:43;;;;;;;8.38;5.20;;;;;;;14.71;100.00;96348.13;4972510;28;20074;-54
2021/10/02 05:02:13;;;;;;;8.27;5.88;;;;;;;14.65;100.00;96354.13;4970301;28;20590;-52
2021/10/02 05:04:42;;;;;;;7.00;5.35;;;;;;;14.78;100.00;96356.22;4969178;28;20090;-54
2021/10/02 05:07:10;;;;;;;8.88;5.43;;;;;;;14.81;100.00;96355.88;4969457;28;20082;-57
2021/10/02 05:09:40;;;;;;;6.97;5.28;;;;;;;14.83;100.00;96355.69;4969128;28;20089;-54
2021/10/02 05:12:10;;;;;;;9.20;5.72;;;;;;;14.84;100.00;96366.16;4971407;28;20066;-51
2021/10/02 05:14:38;;;;;;;9.45;5.60;;;;;;;14.83;100.00;96361.84;4967908;28;20074;-57
2021/10/02 05:17:10;;;;;;;6.70;5.15;;;;;;;14.92;100.00;96371.41;4972446;28;20070;-50
2021/10/02 05:19:41;;;;;;;8.35;5.07;;;;;;;14.74;100.00;96367.38;4968782;28;20540;-55
2021/10/02 05:22:09;;;;;;;6.40;4.72;;;;;;;14.93;100.00;96362.47;4974553;28;21517;-53
2021/10/02 05:24:38;;;;;;;7.00;4.70;;;;;;;14.96;100.00;96371.88;4969628;28;20074;-52
2021/10/02 05:27:08;;;;;;;8.20;5.43;;;;;;;14.94;100.00;96374.72;4973435;28;20066;-52
2021/10/02 05:29:38;;;;;;;8.73;5.57;;;;;;;14.74;100.00;96378.00;4970140;28;20077;-56
2021/10/02 05:32:09;;;;;;;8.57;7.50;;;;;;;15.00;100.00;96367.06;4963527;28;20521;-53
2021/10/02 05:34:37;;;;;;;8.68;7.15;;;;;;;14.49;100.00;96370.09;4971468;28;20461;-55
2021/10/02 05:37:08;;;;;;;6.28;5.15;;;;;;;14.46;100.00;96375.75;4967279;28;20437;-54
2021/10/02 05:39:36;;;;;;;7.22;6.10;;;;;;;14.84;100.00;96371.47;4964929;28;20062;-55
2021/10/02 05:42:05;;;;;;;9.45;5.90;;;;;;;14.87;100.00;96375.59;4967538;28;20110;-55
2021/10/02 05:44:33;;;;;;;8.68;5.90;;;;;;;15.17;100.00;96380.09;4976620;28;20655;-57
2021/10/02 05:47:02;;;;;;;7.63;6.10;;;;;;;15.29;100.00;96383.16;4969608;28;20201;-51
2021/10/02 05:49:31;;;;;;;7.70;5.90;;;;;;;15.45;100.00;96382.25;4969751;28;20082;-58
2021/10/02 05:51:59;;;;;;;9.57;6.13;;;;;;;15.57;100.00;96390.63;4967236;28;20073;-56
2021/10/02 05:54:29;;;;;;;7.70;5.57;;;;;;;15.73;100.00;96392.38;4966592;28;20062;-52
2021/10/02 05:56:57;;;;;;;7.30;5.45;;;;;;;15.69;100.00;96388.38;4966591;28;20069;-54
2021/10/02 05:59:26;;;;;;;6.30;5.32;;;;;;;15.22;100.00;96395.50;4970313;28;20066;-52
2021/10/02 06:01:54;;;;;;;6.60;4.88;;;;;;;15.32;100.00;96395.28;4971839;28;20082;-51
2021/10/02 06:04:23;;;;;;;6.85;4.70;;;;;;;15.35;100.00;96397.59;4971618;28;20078;-54
2021/10/02 06:06:51;;;;;;;5.88;4.70;;;;;;;15.26;100.00;96395.97;4967771;28;20066;-57
2021/10/02 06:09:20;;;;;;;6.00;4.63;;;;;;;15.44;100.00;96405.31;4971041;28;20466;-54
2021/10/02 06:11:50;;;;;;;6.47;4.50;;;;;;;15.48;100.00;96402.31;4967195;28;20062;-55
2021/10/02 06:14:18;;;;;;;6.63;4.90;;;;;;;15.61;100.00;96398.06;4969370;28;20081;-55
2021/10/02 06:16:47;;;;;;;6.57;5.00;;;;;;;15.89;100.00;96405.50;4973208;28;20094;-54
2021/10/02 06:19:17;;;;;;;6.68;4.88;;;;;;;15.96;100.00;96401.13;4969148;28;20094;-57
2021/10/02 06:21:45;;;;;;;8.55;5.32;;;;;;;15.98;100.00;96401.78;4964169;28;20062;-51
2021/10/02 06:24:15;;;;;;;7.78;4.93;;;;;;;16.07;100.00;96403.38;4962671;28;20074;-56
2021/10/02 06:26:43;;;;;;;7.18;5.05;;;;;;;16.21;100.00;96400.91;4968416;28;20608;-55
2021/10/02 06:29:13;;;;;;;8.02;5.50;;;;;;;16.30;100.00;96405.97;4966437;28;20517;-55
2021/10/02 06:31:41;;;;;;;7.00;4.95;;;;;;;16.73;100.00;96408.84;4968432;28;20078;-57
2021/10/02 06:34:10;;;;;;;6.30;5.15;;;;;;;16.89;100.00;96413.16;4970355;28;20086;-58
2021/10/02 06:36:38;;;;;;;6.78;5.07;;;;;;;17.25;100.00;96413.22;4968379;28;20078;-58
2021/10/02 06:39:07;;;;;;;6.30;5.00;;;;;;;17.83;100.00;96413.22;4967967;28;20073;-55
2021/10/02 06:41:35;;;;;;;7.47;4.72;;;;;;;17.25;100.00;96401.72;4966429;28;20464;-56
2021/10/02 06:44:05;;;;;;;5.95;4.90;;;;;;;18.04;100.00;96401.72;4975546;28;20074;-58
2021/10/02 06:46:34;;;;;;;7.50;4.80;;;;;;;18.12;100.00;96404.22;4970399;28;21950;-57
2021/10/02 06:49:03;;;;;;;9.85;5.10;;;;;;;18.30;100.00;96409.09;4967052;28;20166;-53
2021/10/02 06:51:31;;;;;;;7.70;5.20;;;;;;;18.79;100.00;96405.53;4967539;28;20083;-59
2021/10/02 06:54:00;;;;;;;7.60;4.72;;;;;;;18.95;100.00;96404.38;4972704;28;20058;-58
2021/10/02 06:56:28;;;;;;;6.82;4.88;;;;;;;19.31;100.00;96403.31;4965753;28;20089;-57
2021/10/02 06:58:57;;;;;;;6.82;4.55;;;;;;;19.09;100.00;96406.06;4971718;28;20094;-57
2021/10/02 07:01:25;;;;;;;5.75;4.38;;;;;;;19.43;100.00;96396.31;4969001;28;20562;-55
2021/10/02 07:04:00;;;;;;;7.32;4.75;;;;;;;19.49;100.00;96394.72;4965557;28;20070;-61
2021/10/02 07:06:34;;;;;;;7.47;4.75;;;;;;;18.97;100.00;96402.34;4965250;28;20074;-58
2021/10/02 07:09:02;;;;;;;8.23;4.80;;;;;;;18.51;100.00;96402.84;4968017;28;20152;-54
2021/10/02 07:11:31;;;;;;;5.18;4.65;;;;;;;19.76;100.00;96404.47;4965006;28;20077;-59
2021/10/02 07:13:59;;;;;;;5.78;4.45;;;;;;;19.16;100.00;96409.59;4963202;28;20139;-58
2021/10/02 07:16:28;;;;;;;6.18;4.70;;;;;;;19.54;100.00;96408.28;4968307;28;20087;-56
2021/10/02 07:18:56;;;;;;;7.38;4.53;;;;;;;18.57;100.00;96406.59;4967813;28;20071;-58
2021/10/02 07:21:26;;;;;;;5.40;4.10;;;;;;;18.88;100.00;96411.53;4966520;28;20070;-55
2021/10/02 07:23:55;;;;;;;7.45;4.45;;;;;;;19.17;100.00;96413.94;4966800;28;20062;-58
2021/10/02 07:26:23;;;;;;;6.50;4.40;;;;;;;19.05;100.00;96412.03;4969731;28;20078;-58
2021/10/02 07:28:52;;;;;;;6.20;4.20;;;;;;;18.01;100.00;96413.59;4964132;28;20548;-58
2021/10/02 07:31:21;;;;;;;6.60;4.73;;;;;;;18.87;100.00;96407.22;4967140;28;20089;-55
2021/10/02 07:33:50;;;;;;;6.20;5.07;;;;;;;19.95;100.00;96404.69;4963885;28;20058;-59
2021/10/02 07:36:19;;;;;;;7.53;4.75;;;;;;;18.91;100.00;96408.47;4965774;28;20569;-58
2021/10/02 07:38:49;;;;;;;8.57;4.43;;;;;;;18.78;100.00;96408.41;4966486;28;20070;-52
2021/10/02 07:41:18;;;;;;;5.65;4.35;;;;;;;20.58;98.48;96400.56;4966513;28;20058;-57
2021/10/02 07:43:55;;;;;;;6.57;4.03;;;;;;;20.70;95.46;96394.56;4969450;28;20089;-60
2021/10/02 07:46:23;;;;;;;10.55;4.68;;;;;;;21.00;93.37;96394.91;4965722;28;20086;-58
2021/10/02 07:48:53;;;;;;;6.97;5.00;;;;;;;20.92;94.28;96390.59;4966186;28;20066;-57
2021/10/02 07:51:23;;;;;;;7.20;4.13;;;;;;;20.28;100.00;96404.69;4965153;28;20576;-58
2021/10/02 07:53:54;;;;;;;7.40;3.97;;;;;;;20.05;100.00;96397.88;4965224;28;20085;-55
2021/10/02 07:56:23;;;;;;;7.13;4.28;;;;;;;20.90;97.72;96397.19;4964058;28;20063;-56
2021/10/02 07:58:53;;;;;;;5.68;4.07;;;;;;;21.10;95.95;96385.38;4966157;28;20145;-59
2021/10/02 08:01:22;;;;;;;6.88;4.40;;;;;;;21.85;84.74;96387.47;4966693;28;20074;-60
2021/10/02 08:03:52;;;;;;;5.07;4.00;;;;;;;22.15;83.08;96384.97;4967109;28;20541;-60
2021/10/02 08:06:40;;;;;;;6.65;4.82;;;;;;;21.68;87.24;96389.84;4961986;28;20067;-58
2021/10/02 08:09:13;;;;;;;6.95;4.20;;;;;;;21.07;100.00;96387.66;4966055;28;20066;-58
2021/10/02 08:11:42;;;;;;;7.00;4.60;;;;;;;21.31;100.00;96399.50;4967050;28;20074;-57
2021/10/02 08:14:11;;;;;;;5.50;4.43;;;;;;;20.52;100.00;96398.72;4966325;28;20073;-60
2021/10/02 08:16:41;;;;;;;6.68;4.80;;;;;;;20.99;100.00;96385.19;4970264;28;20140;-58
2021/10/02 08:19:12;;;;;;;6.22;4.05;;;;;;;21.39;96.36;96388.56;4969797;28;20749;-59
2021/10/02 08:21:42;;;;;;;6.18;4.40;;;;;;;22.77;85.61;96384.19;4965756;28;20079;-59
2021/10/02 08:24:12;;;;;;;5.80;4.15;;;;;;;21.85;92.06;96390.16;4964472;28;20070;-60
2021/10/02 08:26:41;;;;;;;5.38;3.90;;;;;;;23.11;79.80;96382.81;4970287;28;20082;-58
2021/10/02 08:29:09;;;;;;;6.30;4.00;;;;;;;22.45;89.94;96382.44;4968836;28;20070;-59
2021/10/02 08:31:38;;;;;;;6.10;4.32;;;;;;;22.74;85.40;96370.13;4965273;28;20078;-60
2021/10/02 08:34:24;;;;;;;7.47;4.57;;;;;;;22.37;87.09;96366.63;4967354;28;20415;-61
2021/10/02 08:36:53;;;;;;;5.55;4.00;;;;;;;23.33;81.54;96372.38;4966152;28;20082;-58
2021/10/02 08:39:23;;;;;;;6.47;4.10;;;;;;;22.84;84.22;96364.25;4964703;28;20078;-61
2021/10/02 08:41:52;;;;;;;6.55;4.40;;;;;;;23.46;78.74;96367.63;4963945;28;20066;-56
2021/10/02 08:44:21;;;;;;;9.87;4.50;;;;;;;23.92;75.65;96366.19;4970446;28;20089;-55
2021/10/02 08:46:51;;;;;;;7.93;4.73;;;;;;;23.41;78.75;96369.38;4971794;28;20066;-57
2021/10/02 08:49:38;;;;;;;5.00;3.95;;;;;;;23.92;74.91;96366.19;4968901;28;20071;-60
2021/10/02 08:52:09;;;;;;;6.57;4.80;;;;;;;23.34;80.28;96364.09;4964774;28;20073;-60
2021/10/02 08:54:41;;;;;;;7.40;4.50;;;;;;;23.62;75.38;96357.28;4970437;28;20058;-60
2021/10/02 08:57:17;;;;;;;6.00;4.85;;;;;;;24.07;78.56;96344.19;4965540;28;20068;-60
2021/10/02 08:59:46;;;;;;;8.05;4.85;;;;;;;23.26;85.41;96339.34;4965277;28;20069;-58
2021/10/02 09:02:15;;;;;;;6.47;5.00;;;;;;;23.12;86.57;96339.53;4969047;28;20071;-59
2021/10/02 09:04:45;;;;;;;8.35;5.10;;;;;;;24.24;75.58;96343.50;4967615;28;20761;-57
2021/10/02 09:07:15;;;;;;;6.82;4.93;;;;;;;24.94;68.23;96337.22;4971865;28;20467;-54
2021/10/02 09:09:46;;;;;;;6.78;4.78;;;;;;;25.54;63.80;96326.84;4967539;28;20046;-59
2021/10/02 09:12:17;;;;;;;;;;;;;;;25.33;65.07;96330.22;4971546;28;20089;-60
2021/10/02 09:14:45;;;;;;;8.70;5.18;;;;;;;26.07;61.56;96327.47;4969462;28;19957;-60
2021/10/02 09:17:14;;;;;;;6.47;4.55;;;;;;;26.41;59.72;96330.97;4965912;28;20074;-58
2021/10/02 09:19:46;;;;;;;7.28;5.25;;;;;;;26.20;58.53;96326.34;4964388;28;20093;-60
2021/10/02 09:22:18;;;;;;;5.80;4.53;;;;;;;25.82;61.97;96327.06;4972386;28;20082;-60
2021/10/02 09:24:48;;;;;;;6.60;4.55;;;;;;;27.66;51.81;96308.69;4971518;28;20073;-61
2021/10/02 09:27:20;;;;;;;6.47;5.10;;;;;;;27.32;52.30;96310.78;4970064;28;20138;-60
2021/10/02 09:29:51;;;;;;;7.13;5.20;;;;;;;27.41;50.87;96310.06;4973862;28;20070;-60
2021/10/02 09:32:21;;;;;;;6.18;5.10;;;;;;;27.50;50.91;96309.63;4966169;28;20071;-58
2021/10/02 09:34:52;;;;;;;5.90;4.97;;;;;;;27.36;52.16;96309.22;4966519;28;20087;-51
2021/10/02 09:37:21;;;;;;;;;;;;;;;28.07;49.07;96312.59;4964761;28;20584;-53
2021/10/02 09:39:52;;;;;;;7.47;5.05;;;;;;;28.06;48.91;96315.56;4967700;28;19969;-56
2021/10/02 09:42:26;;;;;;;5.80;4.68;;;;;;;28.03;48.95;96308.78;4965751;28;20706;-53
2021/10/02 09:44:58;;;;;;;8.52;5.55;;;;;;;27.36;50.23;96312.75;4965864;28;20078;-55
2021/10/02 09:47:26;;;;;;;7.50;5.47;;;;;;;27.63;48.44;96303.78;4971041;28;20063;-49
2021/10/02 09:49:55;;;;;;;11.82;5.65;;;;;;;26.17;55.36;96308.72;4966359;28;20078;-57
2021/10/02 09:52:31;;;;;;;6.88;5.38;;;;;;;26.30;55.23;96307.56;4970939;28;20574;-51
2021/10/02 09:55:03;;;;;;;7.20;5.43;;;;;;;27.49;50.86;96303.38;4965788;28;20069;-50
2021/10/02 09:57:32;;;;;;;8.30;5.60;;;;;;;27.54;51.26;96308.88;4965344;28;20093;-52
2021/10/02 10:00:08;;;;;;;6.50;5.28;;;;;;;26.04;53.17;96309.03;4969526;28;20050;-54
2021/10/02 10:02:39;;;;;;;8.20;5.60;;;;;;;26.91;52.71;96296.75;4972482;28;20579;-53
2021/10/02 10:05:08;;;;;;;9.63;5.80;;;;;;;26.65;53.84;96293.75;4973194;28;20070;-55
2021/10/02 10:07:37;;;;;;;7.53;5.38;;;;;;;27.47;48.47;96294.72;4972798;28;20078;-54
2021/10/02 10:10:13;;;;;;;7.47;5.30;;;;;;;27.48;49.96;96293.63;4969535;28;20509;-56
2021/10/02 10:12:43;;;;;;;7.68;5.80;;;;;;;27.72;48.43;96304.16;4969305;28;20070;-54
2021/10/02 10:15:28;;;;;;;8.10;5.10;;;;;;;27.65;49.73;96294.34;4973960;28;20099;-49
2021/10/02 10:17:56;;;;;;;7.82;5.20;;;;;;;27.79;49.63;96294.75;4971387;28;20681;-50
2021/10/02 10:20:38;;;;;;;8.38;5.82;;;;;;;26.68;52.26;96295.94;4971863;28;20067;-56
2021/10/02 10:23:07;;;;;;;6.72;5.63;;;;;;;27.01;49.78;96296.88;4967600;28;20450;-55
2021/10/02 10:25:51;;;;;;;8.13;6.15;;;;;;;26.46;50.69;96289.66;4977284;28;20082;-53
2021/10/02 10:28:22;;;;;;;8.70;5.65;;;;;;;27.94;47.32;96283.22;4972375;28;21405;-56
2021/10/02 10:30:51;;;;;;;7.13;5.60;;;;;;;27.43;48.67;96289.00;4970714;28;20073;-56
2021/10/02 10:33:21;;;;;;;7.82;5.75;;;;;;;27.28;48.61;96282.59;4968788;28;20070;-58
2021/10/02 10:35:50;;;;;;;11.93;6.00;;;;;;;27.49;49.78;96284.41;4968797;28;20078;-50
2021/10/02 10:38:21;;;;;;;8.70;5.60;;;;;;;27.93;47.68;96278.88;4970580;28;20069;-50
2021/10/02 10:40:51;;;;;;;7.78;5.53;;;;;;;26.92;50.97;96276.75;4969841;28;20114;-54
2021/10/02 10:43:21;;;;;;;7.78;5.63;;;;;;;27.69;49.00;96273.78;4973806;28;20825;-51
2021/10/02 10:45:49;;;;;;;8.15;6.10;;;;;;;26.93;49.37;96270.28;4970301;28;20086;-52
2021/10/02 10:48:17;;;;;;;8.98;5.78;;;;;;;26.58;50.85;96271.47;4968178;28;20077;-53
2021/10/02 10:50:47;;;;;;;13.07;5.82;;;;;;;27.86;47.73;96264.72;4969793;28;20074;-52
2021/10/02 10:53:15;;;;;;;7.35;5.65;;;;;;;28.16;46.24;96264.94;4968554;28;20066;-57
2021/10/02 10:55:49;;;;;;;6.68;5.53;;;;;;;27.58;47.57;96269.34;4969626;28;20091;-54
2021/10/02 10:58:27;;;;;;;8.02;5.82;;;;;;;27.82;46.97;96259.00;4972087;28;20086;-50
2021/10/02 11:00:56;;;;;;;8.30;5.57;;;;;;;27.77;47.06;96259.00;4978621;28;20097;-57
2021/10/02 11:03:42;;;;;;;9.00;5.68;;;;;;;27.21;48.60;96251.09;4969989;28;20073;-58
2021/10/02 11:06:14;;;;;;;8.75;6.10;;;;;;;27.88;48.79;96246.31;4968768;28;20127;-55
2021/10/02 11:09:03;;;;;;;8.00;5.53;;;;;;;27.56;47.33;96232.75;4965607;28;20082;-52
2021/10/02 11:11:56;;;;;;;8.70;5.80;;;;;;;27.85;46.93;96234.09;4972119;28;20070;-56
2021/10/02 11:15:00;;;;;;;7.07;5.38;;;;;;;27.36;47.81;96231.50;4975679;28;20066;-59
2021/10/02 11:17:45;;;;;;;7.53;5.57;;;;;;;27.60;47.39;96231.19;4968962;28;20481;-55
2021/10/02 11:20:35;;;;;;;8.13;5.22;;;;;;;27.29;49.06;96225.47;4969650;28;20089;-55
2021/10/02 11:23:40;;;;;;;8.68;5.90;;;;;;;27.26;48.49;96227.88;4968643;28;20070;-58
2021/10/02 11:26:14;;;;;;;7.28;5.43;;;;;;;27.77;46.30;96223.75;4932225;28;20062;-59
2021/10/02 11:28:44;;;;;;;6.63;5.25;;;;;;;26.35;48.12;96215.69;4973643;28;20082;-56
2021/10/02 11:31:16;;;;;;;5.65;4.65;;;;;;;27.57;47.08;96221.66;4962007;28;20136;-58
2021/10/02 11:33:46;;;;;;;8.40;5.60;;;;;;;27.59;45.90;96224.91;4964289;28;20592;-58
2021/10/02 11:36:42;;;;;;;7.90;5.20;;;;;;;27.87;45.21;96214.84;4963032;28;20062;-55
2021/10/02 11:39:15;;;;;;;7.28;5.40;;;;;;;26.72;49.42;96207.78;4965198;28;20493;-57
2021/10/02 11:41:45;;;;;;;7.97;5.60;;;;;;;26.38;50.29;96206.25;4967864;28;20823;-56
2021/10/02 11:44:15;;;;;;;7.43;5.00;;;;;;;27.62;46.30;96200.03;4964314;28;20453;-52
2021/10/02 11:46:45;;;;;;;6.72;4.90;;;;;;;25.99;49.18;96200.88;4961362;28;20082;-57
2021/10/02 11:49:15;;;;;;;7.65;5.50;;;;;;;26.72;46.73;96193.47;4968408;28;20090;-53
2021/10/02 11:51:44;;;;;;;6.10;4.97;;;;;;;26.71;47.68;96189.94;4965698;28;20565;-58
2021/10/02 11:54:16;;;;;;;8.90;4.97;;;;;;;26.81;48.35;96189.25;4964584;28;20198;-56
2021/10/02 11:57:07;;;;;;;6.18;4.95;;;;;;;27.64;45.71;96178.09;4965386;28;20097;-54
2021/10/02 11:59:35;;;;;;;6.57;4.60;;;;;;;28.24;44.75;96173.34;4961572;28;20063;-54
2021/10/02 12:02:05;;;;;;;7.25;5.30;;;;;;;26.68;46.19;96178.81;4965996;28;20075;-55
2021/10/02 12:04:34;;;;;;;7.97;4.60;;;;;;;26.70;45.81;96171.25;4966008;28;20089;-56
2021/10/02 12:07:03;;;;;;;7.70;4.60;;;;;;;27.67;44.57;96177.59;4966094;28;20163;-55
2021/10/02 12:09:31;;;;;;;7.82;4.65;;;;;;;26.12;45.07;96172.66;4965960;28;20071;-55
2021/10/02 12:12:00;;;;;;;5.25;4.07;;;;;;;26.34;46.00;96172.69;4963902;28;20078;-55
2021/10/02 12:14:29;;;;;;;6.43;4.22;;;;;;;27.38;43.26;96163.53;4963414;28;20533;-57
2021/10/02 12:17:00;;;;;;;6.55;3.72;;;;;;;26.77;40.79;96163.75;4961475;28;20093;-55
2021/10/02 12:19:30;;;;;;;7.72;4.10;;;;;;;25.97;43.85;96157.88;4965613;28;20090;-56
2021/10/02 12:21:59;;;;;;;;;;;;;;;26.19;44.28;96141.69;4964514;28;20065;-56
2021/10/02 12:24:29;;;;;;;5.03;3.83;;;;;;;26.88;41.21;96141.16;4962881;28;19973;-59
2021/10/02 12:26:58;;;;;;;;;;;;;;;27.05;41.61;96140.19;4968505;28;20069;-60
2021/10/02 12:29:29;;;;;;;5.88;4.25;;;;;;;26.46;43.66;96139.06;4963068;28;20369;-54
2021/10/02 12:32:00;;;;;;;9.32;4.63;;;;;;;26.54;47.23;96129.69;4963450;28;20074;-59
2021/10/02 12:34:33;;;;;;;10.68;5.38;;;;;;;27.36;42.98;96133.22;4970559;28;20082;-54